createdAt,value
2018-12-25T00:00:51.345Z,5.23
2018-12-25T00:03:21.807Z,5.73
2018-12-25T00:05:52.298Z,5.40
2018-12-25T00:08:42.202Z,5.20
2018-12-25T00:11:32.140Z,5.03
2018-12-25T00:14:02.934Z,4.90
2018-12-25T00:16:35.132Z,5.03
2018-12-25T00:19:06.306Z,5.10
2018-12-25T00:21:57.260Z,4.77
2018-12-25T00:24:27.702Z,4.97
2018-12-25T00:26:58.213Z,5.30
2018-12-25T00:29:28.684Z,4.53
2018-12-25T00:31:59.452Z,4.33
2018-12-25T00:34:29.932Z,4.00
2018-12-25T00:37:19.849Z,4.63
2018-12-25T00:39:50.329Z,4.17
2018-12-25T00:42:20.777Z,3.80
2018-12-25T00:45:10.733Z,4.00
2018-12-25T00:47:41.176Z,4.40
2018-12-25T00:50:11.959Z,3.87
2018-12-25T00:53:02.303Z,4.03
2018-12-25T00:55:32.743Z,3.90
2018-12-25T00:58:03.227Z,3.73
2018-12-25T01:00:53.132Z,3.90
2018-12-25T01:03:23.800Z,3.67
2018-12-25T01:05:54.244Z,4.00
2018-12-25T01:08:26.718Z,3.80
2018-12-25T01:10:57.180Z,4.37
2018-12-25T01:13:27.617Z,3.67
2018-12-25T01:15:58.419Z,3.90
2018-12-25T01:18:28.853Z,4.80
2018-12-25T01:20:59.680Z,4.20
2018-12-25T01:23:30.655Z,4.33
2018-12-25T01:26:01.079Z,3.90
2018-12-25T01:28:31.669Z,3.80
2018-12-25T01:31:02.102Z,3.90
2018-12-25T01:33:32.547Z,4.10
2018-12-25T01:36:03.010Z,4.13
2018-12-25T01:38:33.752Z,4.10
2018-12-25T01:41:04.231Z,4.00
2018-12-25T01:43:34.984Z,3.90
2018-12-25T01:46:05.426Z,4.03
2018-12-25T01:48:35.884Z,4.20
2018-12-25T01:51:06.395Z,4.40
2018-12-25T01:53:36.873Z,4.30
2018-12-25T01:56:07.309Z,4.17
2018-12-25T01:58:38.490Z,3.77
2018-12-25T02:01:08.957Z,3.80
2018-12-25T02:03:39.430Z,4.47
2018-12-25T02:06:29.390Z,4.40
2018-12-25T02:09:19.296Z,4.30
2018-12-25T02:11:49.800Z,3.90
2018-12-25T02:14:20.232Z,4.33
2018-12-25T02:17:09.757Z,4.30
2018-12-25T02:19:40.628Z,4.30
2018-12-25T02:22:11.432Z,4.00
2018-12-25T02:24:41.902Z,3.77
2018-12-25T02:27:12.348Z,4.40
2018-12-25T02:32:58.455Z,3.97
2018-12-25T02:35:29.294Z,3.83
2018-12-25T02:37:59.727Z,3.87
2018-12-25T02:40:30.172Z,3.77
2018-12-25T02:43:00.616Z,3.63
2018-12-25T02:45:31.420Z,3.93
2018-12-25T02:48:01.914Z,4.20
2018-12-25T02:50:32.343Z,4.10
2018-12-25T02:53:22.309Z,3.70
2018-12-25T02:55:54.465Z,3.70
2018-12-25T02:58:44.413Z,3.73
2018-12-25T03:01:14.850Z,3.70
2018-12-25T03:03:45.301Z,3.53
2018-12-25T03:06:16.287Z,4.10
2018-12-25T03:08:46.723Z,3.53
2018-12-25T03:11:36.680Z,3.50
2018-12-25T03:14:07.133Z,3.37
2018-12-25T03:16:37.557Z,3.90
2018-12-25T03:19:08.021Z,3.40
2018-12-25T03:21:38.459Z,3.83
2018-12-25T03:24:28.397Z,3.43
2018-12-25T03:27:18.684Z,3.00
2018-12-25T03:29:49.166Z,2.90
2018-12-25T03:32:19.996Z,3.10
2018-12-25T03:34:50.418Z,3.20
2018-12-25T03:37:20.883Z,2.80
2018-12-25T03:40:11.099Z,3.63
2018-12-25T03:43:19.956Z,3.57
2018-12-25T03:45:50.386Z,2.63
2018-12-25T03:48:20.868Z,3.20
2018-12-25T03:50:51.300Z,2.70
2018-12-25T03:53:21.738Z,3.00
2018-12-25T03:55:52.191Z,2.80
2018-12-25T03:58:42.093Z,3.57
2018-12-25T04:01:12.566Z,3.30
2018-12-25T04:03:43.400Z,2.90
2018-12-25T04:06:13.828Z,3.13
2018-12-25T04:08:44.665Z,3.47
2018-12-25T04:11:15.098Z,2.77
2018-12-25T04:13:46.069Z,2.93
2018-12-25T04:16:16.551Z,2.73
2018-12-25T04:18:46.983Z,3.03
2018-12-25T04:21:17.455Z,2.93
2018-12-25T04:23:47.874Z,2.77
2018-12-25T04:26:18.697Z,3.00
2018-12-25T04:28:49.127Z,3.07
2018-12-25T04:31:21.289Z,3.17
2018-12-25T04:33:52.161Z,2.97
2018-12-25T04:36:24.304Z,3.07
2018-12-25T04:38:55.151Z,2.93
2018-12-25T04:41:27.285Z,3.03
2018-12-25T04:43:57.883Z,3.03
2018-12-25T04:46:28.353Z,3.03
2018-12-25T04:48:58.799Z,2.60
2018-12-25T04:51:29.831Z,2.73
2018-12-25T04:54:00.262Z,3.10
2018-12-25T04:56:30.693Z,3.13
2018-12-25T04:59:20.621Z,2.93
2018-12-25T05:01:51.053Z,2.90
2018-12-25T05:04:21.559Z,2.80
2018-12-25T05:06:52.384Z,3.43
2018-12-25T05:09:22.832Z,2.80
2018-12-25T05:12:13.097Z,2.80
2018-12-25T05:14:43.538Z,2.77
2018-12-25T05:17:14.013Z,3.53
2018-12-25T05:20:03.956Z,3.23
2018-12-25T05:22:53.896Z,3.17
2018-12-25T05:25:24.641Z,3.20
2018-12-25T05:27:55.072Z,3.10
2018-12-25T05:30:25.536Z,3.47
2018-12-25T05:32:55.969Z,3.33
2018-12-25T05:35:26.769Z,3.27
2018-12-25T05:37:57.205Z,3.60
2018-12-25T05:40:27.642Z,3.20
2018-12-25T05:42:58.109Z,3.40
2018-12-25T05:45:48.014Z,3.07
2018-12-25T05:48:20.591Z,3.30
2018-12-25T05:50:51.032Z,3.30
2018-12-25T05:53:21.460Z,3.30
2018-12-25T05:55:51.920Z,3.43
2018-12-25T05:58:22.350Z,3.67
2018-12-25T06:00:52.830Z,3.60
2018-12-25T06:03:23.291Z,3.90
2018-12-25T06:05:55.439Z,3.33
2018-12-25T06:08:27.620Z,3.30
2018-12-25T06:10:58.070Z,3.80
2018-12-25T06:13:28.901Z,3.33
2018-12-25T06:15:59.497Z,3.97
2018-12-25T06:18:30.271Z,3.33
2018-12-25T06:21:00.732Z,3.80
2018-12-25T06:23:31.168Z,3.63
2018-12-25T06:26:01.645Z,3.60
2018-12-25T06:28:32.078Z,4.03
2018-12-25T06:31:02.926Z,4.30
2018-12-25T06:33:33.381Z,4.00
2018-12-25T06:36:04.196Z,3.80
2018-12-25T06:38:34.674Z,4.33
2018-12-25T06:41:05.105Z,3.73
2018-12-25T06:43:35.541Z,4.20
2018-12-25T06:46:06.002Z,3.73
2018-12-25T06:48:36.439Z,4.43
2018-12-25T06:51:06.919Z,3.90
2018-12-25T06:53:37.349Z,4.23
2018-12-25T06:56:08.152Z,4.23
2018-12-25T06:58:38.617Z,4.30
2018-12-25T07:01:09.048Z,4.43
2018-12-25T07:03:41.266Z,4.67
2018-12-25T07:06:13.496Z,4.53
2018-12-25T07:12:00.173Z,4.33
2018-12-25T07:14:31.045Z,4.17
2018-12-25T07:17:01.842Z,4.13
2018-12-25T07:19:52.120Z,3.90
2018-12-25T07:22:22.560Z,4.20
2018-12-25T07:24:52.996Z,4.07
2018-12-25T07:27:23.474Z,4.57
2018-12-25T07:29:54.063Z,3.73
2018-12-25T07:32:24.881Z,4.20
2018-12-25T07:34:55.311Z,3.90
2018-12-25T07:37:25.745Z,4.40
2018-12-25T07:39:56.205Z,4.50
2018-12-25T07:42:26.636Z,4.00
2018-12-25T07:44:57.115Z,4.20
2018-12-25T07:47:27.565Z,3.93
2018-12-25T07:49:57.991Z,4.47
2018-12-25T07:52:28.455Z,3.67
2018-12-25T07:54:58.885Z,4.00
2018-12-25T07:57:29.365Z,3.67
2018-12-25T07:59:59.803Z,4.07
2018-12-25T08:02:30.232Z,3.37
2018-12-25T08:05:01.108Z,3.57
2018-12-25T08:07:31.694Z,3.70
2018-12-25T08:10:02.182Z,3.40
2018-12-25T08:12:34.327Z,3.53
2018-12-25T08:15:05.158Z,3.30
2018-12-25T08:17:35.684Z,3.10
2018-12-25T08:20:06.231Z,3.83
2018-12-25T08:22:36.702Z,3.30
2018-12-25T08:25:07.135Z,3.60
2018-12-25T08:27:37.568Z,3.60
2018-12-25T08:30:08.024Z,3.17
2018-12-25T08:32:38.453Z,3.50
2018-12-25T08:35:10.652Z,4.10
2018-12-25T08:37:41.092Z,3.97
2018-12-25T08:40:11.534Z,3.70
2018-12-25T08:42:41.994Z,3.37
2018-12-25T08:45:31.904Z,3.87
2018-12-25T08:48:04.096Z,3.90
2018-12-25T08:50:53.815Z,4.40
2018-12-25T08:53:24.301Z,3.90
2018-12-25T08:55:55.041Z,4.03
2018-12-25T08:58:25.479Z,3.80
2018-12-25T09:00:55.944Z,3.83
2018-12-25T09:03:26.709Z,4.30
2018-12-25T09:05:57.188Z,4.20
2018-12-25T09:08:34.747Z,4.33
2018-12-25T09:11:20.994Z,4.53
2018-12-25T09:13:51.414Z,4.10
2018-12-25T09:16:21.845Z,4.50
2018-12-25T09:18:52.305Z,4.30
2018-12-25T09:21:46.364Z,4.90
2018-12-25T09:24:34.245Z,4.67
2018-12-25T09:27:05.045Z,4.27
2018-12-25T09:29:35.482Z,4.60
2018-12-25T09:32:05.947Z,4.70
2018-12-25T09:34:36.389Z,4.60
2018-12-25T09:37:06.866Z,3.87
2018-12-25T09:39:37.306Z,4.23
2018-12-25T09:42:08.447Z,4.07
2018-12-25T09:44:38.908Z,4.30
2018-12-25T09:47:09.347Z,4.97
2018-12-25T09:49:40.144Z,4.57
2018-12-25T09:52:10.573Z,4.57
2018-12-25T09:54:41.160Z,4.50
2018-12-25T09:57:11.619Z,4.10
2018-12-25T09:59:42.408Z,4.40
2018-12-25T10:02:12.889Z,4.50
2018-12-25T10:04:43.343Z,4.83
2018-12-25T10:07:13.779Z,4.77
2018-12-25T10:09:44.238Z,4.83
2018-12-25T10:12:14.680Z,4.73
2018-12-25T10:14:45.154Z,4.53
2018-12-25T10:17:34.469Z,4.40
2018-12-25T10:20:06.670Z,4.60
2018-12-25T10:22:56.574Z,4.40
2018-12-25T10:25:27.033Z,4.70
2018-12-25T10:27:57.474Z,4.63
2018-12-25T10:30:28.249Z,4.30
2018-12-25T10:32:58.712Z,4.07
2018-12-25T10:35:30.861Z,4.17
2018-12-25T10:38:01.293Z,3.90
2018-12-25T10:40:31.751Z,4.63
2018-12-25T10:43:02.185Z,3.50
2018-12-25T10:45:52.532Z,3.60
2018-12-25T10:48:23.360Z,3.63
2018-12-25T10:50:53.790Z,3.13
2018-12-25T10:53:24.658Z,3.30
2018-12-25T10:55:55.092Z,3.03
2018-12-25T10:58:45.059Z,4.07
2018-12-25T11:01:41.613Z,3.97
2018-12-25T11:04:12.117Z,3.90
2018-12-25T11:06:42.634Z,4.73
2018-12-25T11:09:14.014Z,4.23
2018-12-25T11:12:05.048Z,4.50
2018-12-25T11:14:35.477Z,4.07
2018-12-25T11:17:05.949Z,4.63
2018-12-25T11:19:36.383Z,4.70
2018-12-25T11:22:06.809Z,4.17
2018-12-25T11:24:37.273Z,4.37
2018-12-25T11:27:07.714Z,4.30
2018-12-25T11:29:38.185Z,4.53
2018-12-25T11:32:08.969Z,4.50
2018-12-25T11:34:39.400Z,4.10
2018-12-25T11:37:09.858Z,4.50
2018-12-25T11:39:40.287Z,3.80
2018-12-25T11:42:30.915Z,4.23
2018-12-25T11:45:01.350Z,4.30
2018-12-25T11:47:51.666Z,4.53
2018-12-25T11:50:22.110Z,3.97
2018-12-25T11:52:52.549Z,4.03
2018-12-25T11:55:23.009Z,4.30
2018-12-25T12:01:03.145Z,3.73
2018-12-25T12:03:36.025Z,3.63
2018-12-25T12:06:06.462Z,3.57
2018-12-25T12:08:37.249Z,3.90
2018-12-25T12:11:07.686Z,3.40
2018-12-25T12:13:38.496Z,3.10
2018-12-25T12:16:08.929Z,3.20
2018-12-25T12:18:39.359Z,3.60
2018-12-25T12:21:10.225Z,3.23
2018-12-25T12:23:40.663Z,3.20
2018-12-25T12:26:30.588Z,3.20
2018-12-25T12:29:01.056Z,3.10
2018-12-25T12:31:31.897Z,3.03
2018-12-25T12:34:02.383Z,2.93
2018-12-25T12:36:32.822Z,2.77
2018-12-25T12:42:19.606Z,2.77
2018-12-25T12:44:50.045Z,2.90
2018-12-25T12:47:20.544Z,2.37
2018-12-25T12:49:50.962Z,2.70
2018-12-25T12:52:23.158Z,2.50
2018-12-25T12:54:53.590Z,2.27
2018-12-25T12:57:24.402Z,2.67
2018-12-25T12:59:55.232Z,2.83
2018-12-25T13:02:25.677Z,2.20
2018-12-25T13:04:56.188Z,2.10
2018-12-25T13:07:26.989Z,2.23
2018-12-25T13:09:57.420Z,2.13
2018-12-25T13:12:27.884Z,2.63
2018-12-25T13:14:58.309Z,2.37
2018-12-25T13:17:28.794Z,2.10
2018-12-25T13:19:59.226Z,2.17
2018-12-25T13:22:29.765Z,1.70
2018-12-25T13:25:00.526Z,1.70
2018-12-25T13:27:30.953Z,1.30
2018-12-25T13:30:01.522Z,1.57
2018-12-25T13:32:32.312Z,1.60
2018-12-25T13:35:02.740Z,1.40
2018-12-25T13:37:33.596Z,1.40
2018-12-25T13:40:04.142Z,1.10
2018-12-25T13:42:34.619Z,1.50
2018-12-25T13:45:05.131Z,1.40
2018-12-25T13:47:35.569Z,1.83
2018-12-25T13:50:25.589Z,1.50
2018-12-25T13:53:02.761Z,1.50
2018-12-25T13:55:47.676Z,1.50
2018-12-25T13:58:18.105Z,1.40
2018-12-25T14:00:48.941Z,1.60
2018-12-25T14:03:19.849Z,1.30
2018-12-25T14:05:52.025Z,1.30
2018-12-25T14:08:24.223Z,1.00
2018-12-25T14:10:54.671Z,1.30
2018-12-25T14:13:25.104Z,1.40
2018-12-25T14:15:55.573Z,1.60
2018-12-25T14:18:26.452Z,1.60
2018-12-25T14:20:59.030Z,1.60
2018-12-25T14:23:29.469Z,1.37
2018-12-25T14:25:59.909Z,1.40
2018-12-25T14:28:30.371Z,1.30
2018-12-25T14:31:00.815Z,1.40
2018-12-25T14:33:51.136Z,1.07
2018-12-25T14:36:21.573Z,1.60
2018-12-25T14:38:52.007Z,1.53
2018-12-25T14:41:22.464Z,1.37
2018-12-25T14:43:52.895Z,1.27
2018-12-25T14:46:23.378Z,1.43
2018-12-25T14:48:53.815Z,1.70
2018-12-25T14:51:24.249Z,1.50
2018-12-25T14:53:54.705Z,1.50
2018-12-25T14:56:25.136Z,1.40
2018-12-25T14:58:55.595Z,1.70
2018-12-25T15:01:26.037Z,1.93
2018-12-25T15:03:56.520Z,2.00
2018-12-25T15:06:26.991Z,1.97
2018-12-25T15:08:57.432Z,2.27
2018-12-25T15:11:47.359Z,2.40
2018-12-25T15:14:18.165Z,2.00
2018-12-25T15:16:48.640Z,2.40
2018-12-25T15:19:20.800Z,2.47
2018-12-25T15:21:51.230Z,2.47
2018-12-25T15:24:21.684Z,2.33
2018-12-25T15:26:52.112Z,2.60
2018-12-25T15:29:23.571Z,2.30
2018-12-25T15:32:14.564Z,2.10
2018-12-25T15:34:47.615Z,2.10
2018-12-25T15:37:18.053Z,1.90
2018-12-25T15:39:48.822Z,1.87
2018-12-25T15:42:19.283Z,1.60
2018-12-25T15:44:49.713Z,1.90
2018-12-25T15:47:20.199Z,1.90
2018-12-25T15:49:50.630Z,1.83
2018-12-25T15:52:21.069Z,2.10
2018-12-25T15:54:52.234Z,1.57
2018-12-25T15:57:22.677Z,1.60
2018-12-25T15:59:53.148Z,1.80
2018-12-25T16:02:43.371Z,1.80
2018-12-25T16:05:14.148Z,2.10
2018-12-25T16:07:44.619Z,1.70
2018-12-25T16:10:34.552Z,1.60
2018-12-25T16:13:04.992Z,2.07
2018-12-25T16:15:35.473Z,1.57
2018-12-25T16:18:25.375Z,1.97
2018-12-25T16:21:15.330Z,1.83
2018-12-25T16:23:45.973Z,2.20
2018-12-25T16:26:37.421Z,2.10
2018-12-25T16:29:07.854Z,2.00
2018-12-25T16:31:38.293Z,2.10
2018-12-25T16:34:09.086Z,2.03
2018-12-25T16:39:29.151Z,2.43
2018-12-25T16:42:01.650Z,2.30
2018-12-25T16:44:51.158Z,2.60
2018-12-25T16:47:21.593Z,2.20
2018-12-25T16:49:52.086Z,2.37
2018-12-25T16:52:22.961Z,2.60
2018-12-25T16:54:53.392Z,2.70
2018-12-25T16:57:23.868Z,2.80
2018-12-25T16:59:54.305Z,2.73
2018-12-25T17:02:24.737Z,2.43
2018-12-25T17:04:55.194Z,2.43
2018-12-25T17:07:27.760Z,2.30
2018-12-25T17:09:58.249Z,2.07
2018-12-25T17:12:28.793Z,2.10
2018-12-25T17:14:59.194Z,2.20
2018-12-25T17:17:29.653Z,2.30
2018-12-25T17:20:00.151Z,2.60
2018-12-25T17:22:30.657Z,2.20
2018-12-25T17:25:01.088Z,2.27
2018-12-25T17:27:31.521Z,2.30
2018-12-25T17:30:01.985Z,2.67
2018-12-25T17:32:32.415Z,2.67
2018-12-25T17:35:04.717Z,2.97
2018-12-25T17:37:35.562Z,3.10
2018-12-25T17:40:06.118Z,3.50
2018-12-25T17:42:36.584Z,4.40
2018-12-25T17:45:07.300Z,4.07
2018-12-25T17:47:38.091Z,4.57
2018-12-25T17:50:08.531Z,4.50
2018-12-25T17:52:40.681Z,5.50
2018-12-25T17:55:11.598Z,5.50
2018-12-25T17:57:42.100Z,4.83
2018-12-25T18:00:12.980Z,5.67
2018-12-25T18:02:45.141Z,5.47
2018-12-25T18:05:15.947Z,5.60
2018-12-25T18:07:46.750Z,6.10
2018-12-25T18:10:17.516Z,6.20
2018-12-25T18:12:48.009Z,5.40
2018-12-25T18:15:18.448Z,6.50
2018-12-25T18:17:48.891Z,6.37
2018-12-25T18:20:19.743Z,6.27
2018-12-25T18:23:09.217Z,5.93
2018-12-25T18:25:39.704Z,6.23
2018-12-25T18:28:10.449Z,6.20
2018-12-25T18:30:40.884Z,6.37
2018-12-25T18:33:12.027Z,6.10
2018-12-25T18:35:44.508Z,6.20
2018-12-25T18:38:34.463Z,6.03
2018-12-25T18:41:24.371Z,5.87
2018-12-25T18:43:54.858Z,6.07
2018-12-25T18:46:25.296Z,5.83
2018-12-25T18:48:55.736Z,5.63
2018-12-25T18:51:26.198Z,6.03
2018-12-25T18:53:56.641Z,5.63
2018-12-25T18:56:46.945Z,6.00
2018-12-25T18:59:17.382Z,6.07
2018-12-25T19:01:47.864Z,6.57
2018-12-25T19:04:18.457Z,5.87
2018-12-25T19:06:48.934Z,6.50
2018-12-25T19:09:19.792Z,5.97
2018-12-25T19:11:50.225Z,5.83
2018-12-25T19:14:20.704Z,5.73
2018-12-25T19:16:51.714Z,6.13
2018-12-25T19:19:22.166Z,6.33
2018-12-25T19:21:52.633Z,5.73
2018-12-25T19:24:25.196Z,5.83
2018-12-25T19:26:55.676Z,6.00
2018-12-25T19:29:26.112Z,6.50
2018-12-25T19:31:58.430Z,6.30
2018-12-25T19:34:29.279Z,6.30
2018-12-25T19:37:00.104Z,7.13
2018-12-25T19:39:30.581Z,7.77
2018-12-25T19:42:01.025Z,8.50
2018-12-25T19:44:33.183Z,10.00
2018-12-25T19:47:03.654Z,10.07
2018-12-25T19:49:53.055Z,11.43
2018-12-25T19:52:43.019Z,11.53
2018-12-25T19:55:32.930Z,13.10
2018-12-25T19:58:03.428Z,13.20
2018-12-25T20:00:53.336Z,12.67
2018-12-25T20:03:29.587Z,15.30
2018-12-25T20:06:38.106Z,15.13
2018-12-25T20:09:46.638Z,15.30
2018-12-25T20:12:55.063Z,14.90
2018-12-25T20:16:03.523Z,15.43
2018-12-25T20:19:11.956Z,16.93
2018-12-25T20:22:20.721Z,17.37
2018-12-25T20:29:09.246Z,17.60
2018-12-25T20:32:18.026Z,18.97
2018-12-25T20:35:26.499Z,20.23
2018-12-25T20:38:35.228Z,19.90
2018-12-25T20:41:43.688Z,19.63
2018-12-25T20:44:52.111Z,20.03
2018-12-25T20:48:19.644Z,20.30
2018-12-25T20:51:28.038Z,21.30
2018-12-25T20:54:36.568Z,21.47
2018-12-25T21:01:33.257Z,22.90
2018-12-25T21:04:41.853Z,23.03
2018-12-25T21:07:50.640Z,23.23
2018-12-25T21:10:59.368Z,23.83
2018-12-25T21:14:07.935Z,26.33
2018-12-25T21:17:16.363Z,24.80
2018-12-25T21:20:24.840Z,25.03
2018-12-25T21:23:33.266Z,24.93
2018-12-25T21:26:41.743Z,25.27
2018-12-25T21:35:40.923Z,25.70
2018-12-25T21:38:11.370Z,25.97
2018-12-25T21:40:41.826Z,25.37
2018-12-25T21:43:12.524Z,26.10
2018-12-25T21:45:42.971Z,26.63
2018-12-25T21:48:13.421Z,25.50
2018-12-25T21:50:43.903Z,26.40
2018-12-25T21:53:14.351Z,26.47
2018-12-25T21:55:45.218Z,25.80
2018-12-25T21:58:15.763Z,24.77
2018-12-25T22:01:25.544Z,25.77
2018-12-25T22:07:25.278Z,26.23
2018-12-25T22:09:55.723Z,25.40
2018-12-25T22:12:26.218Z,28.00
2018-12-25T22:14:56.980Z,25.03
2018-12-25T22:17:27.428Z,25.53
2018-12-25T22:19:58.309Z,25.40
2018-12-25T22:22:28.755Z,23.70
2018-12-25T22:24:59.255Z,25.57
2018-12-25T22:27:30.054Z,25.10
2018-12-25T22:30:02.664Z,25.40
2018-12-25T22:32:33.144Z,25.30
2018-12-25T22:35:03.592Z,24.80
2018-12-25T22:37:34.083Z,24.70
2018-12-25T22:40:05.064Z,23.73
2018-12-25T22:42:35.504Z,23.47
2018-12-25T22:45:06.508Z,24.17
2018-12-25T22:47:37.302Z,24.00
2018-12-25T22:50:08.217Z,22.63
2018-12-25T22:52:38.667Z,22.83
2018-12-25T22:55:35.721Z,23.10
2018-12-25T22:58:20.359Z,22.03
2018-12-25T23:00:52.641Z,23.23
2018-12-25T23:03:23.088Z,23.03
2018-12-25T23:05:53.877Z,22.87
2018-12-25T23:08:24.350Z,23.53
2018-12-25T23:10:54.789Z,23.50
2018-12-25T23:13:25.293Z,23.40
2018-12-25T23:15:55.734Z,21.63
2018-12-25T23:18:26.341Z,20.97
2018-12-25T23:20:56.807Z,22.13
2018-12-25T23:23:27.640Z,21.23
2018-12-25T23:25:58.134Z,20.63
2018-12-25T23:28:30.303Z,20.77
2018-12-25T23:31:00.761Z,20.93
2018-12-25T23:33:31.218Z,20.60
2018-12-25T23:36:01.655Z,20.77
2018-12-25T23:38:32.530Z,20.43
2018-12-25T23:41:03.246Z,20.40
2018-12-25T23:43:33.697Z,19.23
2018-12-25T23:46:23.632Z,18.57
2018-12-25T23:49:13.847Z,19.33
2018-12-25T23:51:44.347Z,18.03
2018-12-25T23:54:14.787Z,17.90
2018-12-25T23:56:45.245Z,18.83
2018-12-25T23:59:15.778Z,17.97
